Time;durP1;ratioP1;P1;durP2;ratioP2;P2;SDS_P1;SDS_P2;PMS_P1;PMS_P2;Temp;Humidity;BMP_temperature;BMP_pressure;BME280_temperature;BME280_humidity;BME280_pressure;Samples;Min_cycle;Max_cycle;Signal;HPM_P1;HPM_P2
2022/07/03 00:01:22;;;;;;;8.60;2.50;;;19.40;99.90;;;;;;5096622;28;20040;-68
2022/07/03 00:03:48;;;;;;;6.47;2.93;;;19.30;99.90;;;;;;5078483;28;20121;-68
2022/07/03 00:06:13;;;;;;;6.00;2.63;;;19.30;99.90;;;;;;5096587;28;20083;-68
2022/07/03 00:08:39;;;;;;;5.00;2.63;;;19.20;99.90;;;;;;5096276;28;20505;-68
2022/07/03 00:11:08;;;;;;;8.87;2.67;;;19.10;99.90;;;;;;5096366;28;20510;-68
2022/07/03 00:13:33;;;;;;;6.23;2.80;;;19.10;99.90;;;;;;5096257;28;20135;-69
2022/07/03 00:15:59;;;;;;;7.27;2.50;;;19.10;99.90;;;;;;5078317;28;20127;-68
2022/07/03 00:18:25;;;;;;;7.30;2.70;;;19.00;99.90;;;;;;5096298;28;20051;-68
2022/07/03 00:21:05;;;;;;;5.00;2.30;;;18.90;99.90;;;;;;5095941;28;20127;-68
2022/07/03 00:23:43;;;;;;;8.70;2.50;;;18.90;99.90;;;;;;5096226;28;20051;-69
2022/07/03 00:26:12;;;;;;;6.57;2.90;;;18.80;99.90;;;;;;5096423;28;20054;-68
2022/07/03 00:28:38;;;;;;;5.37;2.17;;;18.80;99.90;;;;;;5095893;28;20085;-69
2022/07/03 00:31:04;;;;;;;5.67;2.70;;;18.80;99.90;;;;;;5096046;28;20127;-68
2022/07/03 00:33:34;;;;;;;5.57;2.40;;;18.80;99.90;;;;;;5096054;28;20040;-68
2022/07/03 00:36:00;;;;;;;7.23;2.37;;;18.70;99.90;;;;;;5096132;28;20472;-68
2022/07/03 00:38:27;;;;;;;4.70;2.10;;;18.70;99.90;;;;;;5078209;28;20100;-68
2022/07/03 00:40:53;;;;;;;3.80;1.80;;;18.70;99.90;;;;;;5094917;28;20085;-68
2022/07/03 00:43:20;;;;;;;6.30;2.60;;;18.60;99.90;;;;;;5095833;28;20051;-68
2022/07/03 00:45:50;;;;;;;6.23;2.60;;;18.60;99.90;;;;;;5077644;28;20392;-68
2022/07/03 00:48:18;;;;;;;4.87;2.50;;;18.60;99.90;;;;;;5095847;28;20044;-68
2022/07/03 00:50:46;;;;;;;5.07;2.20;;;18.50;99.90;;;;;;5095137;28;20412;-68
2022/07/03 00:53:17;;;;;;;5.00;2.40;;;18.50;99.90;;;;;;5095631;28;20044;-68
2022/07/03 00:55:46;;;;;;;6.10;2.50;;;18.40;99.90;;;;;;5095346;28;20392;-68
2022/07/03 00:58:17;;;;;;;11.00;3.07;;;18.30;99.90;;;;;;5095704;28;20048;-68
2022/07/03 01:00:45;;;;;;;5.37;2.63;;;18.20;99.90;;;;;;5095290;28;20130;-69
2022/07/03 01:03:19;;;;;;;7.20;2.50;;;18.30;99.90;;;;;;5095732;28;20047;-68
2022/07/03 01:05:51;;;;;;;5.90;3.05;;;18.20;99.90;;;;;;5095206;28;20146;-69
2022/07/03 01:08:43;;;;;;;5.20;2.37;;;18.20;99.90;;;;;;5095546;28;20055;-68
2022/07/03 01:11:24;;;;;;;6.73;2.63;;;18.20;99.90;;;;;;5095586;28;20052;-68
2022/07/03 01:14:01;;;;;;;6.30;2.70;;;18.10;99.90;;;;;;5095034;28;20071;-68
2022/07/03 01:16:48;;;;;;;7.30;3.20;;;18.10;99.90;;;;;;5095163;28;20122;-68
2022/07/03 01:19:32;;;;;;;6.63;3.10;;;18.00;99.90;;;;;;5077092;28;20638;-68
2022/07/03 01:22:27;;;;;;;6.40;2.70;;;18.00;99.90;;;;;;5094931;28;20044;-68
2022/07/03 01:25:07;;;;;;;6.18;2.72;;;17.90;99.90;;;;;;5094895;28;20135;-68
2022/07/03 01:27:45;;;;;;;6.80;2.73;;;18.00;99.90;;;;;;5094812;28;20472;-68
2022/07/03 01:30:11;;;;;;;4.77;2.43;;;17.90;99.90;;;;;;5094943;28;20139;-68
2022/07/03 01:32:45;;;;;;;6.50;2.73;;;17.90;99.90;;;;;;5094874;28;20484;-68
2022/07/03 01:35:34;;;;;;;4.68;2.75;;;17.90;99.90;;;;;;5094944;28;20468;-68
2022/07/03 01:38:07;;;;;;;7.17;2.80;;;17.90;99.90;;;;;;5074385;28;20051;-68
2022/07/03 01:40:34;;;;;;;5.33;2.57;;;17.90;99.90;;;;;;5094913;28;20052;-68
2022/07/03 01:43:03;;;;;;;6.13;2.63;;;17.90;99.90;;;;;;5076302;28;20373;-68
2022/07/03 01:45:33;;;;;;;6.07;2.73;;;17.80;99.90;;;;;;5094612;28;20244;-68
2022/07/03 01:48:01;;;;;;;5.83;2.80;;;17.70;99.90;;;;;;5094385;28;20097;-68
2022/07/03 01:50:28;;;;;;;5.53;3.00;;;17.70;99.90;;;;;;5094535;28;20139;-68
2022/07/03 01:52:56;;;;;;;11.37;3.47;;;17.60;99.90;;;;;;5093489;28;20052;-69
2022/07/03 01:55:23;;;;;;;6.37;3.30;;;17.60;99.90;;;;;;5094622;28;20047;-68
2022/07/03 01:57:50;;;;;;;5.47;2.93;;;17.60;99.90;;;;;;5076051;28;20059;-68
2022/07/03 02:00:19;;;;;;;5.20;3.33;;;17.60;99.90;;;;;;5094336;28;20132;-68
2022/07/03 02:03:04;;;;;;;5.60;2.80;;;17.60;99.90;;;;;;5093963;28;20522;-74
2022/07/03 02:05:37;;;;;;;5.55;3.10;;;17.60;99.90;;;;;;5076315;28;20093;-68
2022/07/03 02:08:25;;;;;;;4.83;3.00;;;17.60;99.90;;;;;;5094017;28;20415;-68
2022/07/03 02:11:12;;;;;;;6.30;3.40;;;17.60;99.90;;;;;;5093894;28;20134;-68
2022/07/03 02:13:44;;;;;;;10.03;3.97;;;17.60;99.90;;;;;;5094200;28;20403;-68
2022/07/03 02:16:16;;;;;;;5.43;3.43;;;17.50;99.90;;;;;;5094090;28;20059;-68
2022/07/03 02:18:43;;;;;;;5.93;3.03;;;17.40;99.90;;;;;;5076345;28;20047;-68
2022/07/03 02:21:19;;;;;;;6.63;3.20;;;17.40;99.90;;;;;;5093670;28;20055;-68
2022/07/03 02:24:18;;;;;;;6.63;3.53;;;17.40;99.90;;;;;;5094163;28;20094;-68
2022/07/03 02:27:05;;;;;;;7.27;3.20;;;17.30;99.90;;;;;;5093967;28;20079;-68
2022/07/03 02:29:33;;;;;;;6.83;2.87;;;17.20;99.90;;;;;;5093850;28;20047;-68
2022/07/03 02:32:03;;;;;;;7.00;3.67;;;17.20;99.90;;;;;;5093449;28;20077;-68
2022/07/03 02:34:31;;;;;;;6.77;3.00;;;17.20;99.90;;;;;;5075881;28;20048;-68
2022/07/03 02:37:05;;;;;;;6.23;2.60;;;17.20;99.90;;;;;;5075317;28;20199;-68
2022/07/03 02:39:56;;;;;;;6.40;3.30;;;17.20;99.90;;;;;;5093839;28;20086;-68
2022/07/03 02:42:32;;;;;;;6.70;3.17;;;17.10;99.90;;;;;;5091195;28;20407;-68
2022/07/03 02:45:01;;;;;;;6.10;3.00;;;17.10;99.90;;;;;;5075234;28;20126;-68
2022/07/03 02:47:30;;;;;;;5.07;3.03;;;17.10;99.90;;;;;;5093518;28;20083;-68
2022/07/03 02:50:09;;;;;;;4.30;2.83;;;17.00;99.90;;;;;;5092970;28;20146;-68
2022/07/03 02:52:38;;;;;;;6.00;2.90;;;17.00;99.90;;;;;;5093612;28;20047;-68
2022/07/03 02:55:21;;;;;;;4.87;2.93;;;17.00;99.90;;;;;;5093201;28;20127;-68
2022/07/03 02:57:55;;;;;;;7.50;3.07;;;17.10;99.90;;;;;;5075200;28;20036;-68
2022/07/03 03:00:23;;;;;;;7.43;3.47;;;17.00;99.90;;;;;;5093469;28;20114;-70
2022/07/03 03:02:49;;;;;;;5.23;3.43;;;17.00;99.90;;;;;;5093328;28;20055;-69
2022/07/03 03:05:33;;;;;;;4.63;3.10;;;17.10;99.90;;;;;;5092567;28;20047;-67
2022/07/03 03:08:01;;;;;;;4.63;3.00;;;17.00;99.90;;;;;;5092578;28;20040;-69
2022/07/03 03:10:27;;;;;;;5.73;3.27;;;17.00;99.90;;;;;;5093119;28;20070;-67
2022/07/03 03:13:03;;;;;;;5.67;2.97;;;17.00;99.90;;;;;;5092898;28;20042;-75
2022/07/03 03:15:31;;;;;;;7.67;3.90;;;17.10;99.90;;;;;;5093170;28;20048;-67
2022/07/03 03:18:02;;;;;;;5.50;3.30;;;17.00;99.90;;;;;;5092697;28;20036;-67
2022/07/03 03:20:31;;;;;;;5.93;3.33;;;17.00;99.90;;;;;;5093461;28;20114;-67
2022/07/03 03:23:27;;;;;;;6.50;3.53;;;17.00;99.90;;;;;;5092751;28;20048;-68
2022/07/03 03:25:53;;;;;;;7.00;3.77;;;16.90;99.90;;;;;;5093197;28;20142;-67
2022/07/03 03:28:19;;;;;;;6.63;3.90;;;16.80;99.90;;;;;;5092857;28;20044;-68
2022/07/03 03:30:45;;;;;;;7.23;4.23;;;16.80;99.90;;;;;;5092998;28;20130;-67
2022/07/03 03:33:12;;;;;;;6.50;3.73;;;16.80;99.90;;;;;;5092652;28;20083;-67
2022/07/03 03:35:39;;;;;;;6.37;3.37;;;16.90;99.90;;;;;;5093007;28;20055;-67
2022/07/03 03:38:05;;;;;;;9.20;3.97;;;16.80;99.90;;;;;;5092126;28;20040;-68
2022/07/03 03:40:34;;;;;;;5.00;3.50;;;17.00;99.90;;;;;;5092959;28;20048;-67
2022/07/03 03:43:02;;;;;;;6.30;4.20;;;17.00;99.90;;;;;;5074796;28;20052;-68
2022/07/03 03:45:27;;;;;;;5.73;3.63;;;16.80;99.90;;;;;;5092858;28;20123;-67
2022/07/03 03:47:53;;;;;;;6.87;3.83;;;17.00;99.90;;;;;;5092782;28;20148;-67
2022/07/03 03:50:19;;;;;;;6.57;3.23;;;16.90;99.90;;;;;;5092281;28;20524;-67
2022/07/03 03:52:45;;;;;;;7.10;3.97;;;17.10;99.90;;;;;;5092914;28;20162;-67
2022/07/03 03:55:11;;;;;;;8.83;3.70;;;17.00;99.90;;;;;;5092511;28;20123;-67
2022/07/03 03:57:37;;;;;;;6.17;3.50;;;17.00;99.90;;;;;;5092607;28;20130;-67
2022/07/03 04:00:05;;;;;;;6.67;3.57;;;17.10;99.90;;;;;;5092495;28;20040;-68
2022/07/03 04:02:30;;;;;;;6.00;3.60;;;17.00;99.90;;;;;;5092795;28;20051;-67
2022/07/03 04:04:56;;;;;;;5.27;2.90;;;17.10;99.90;;;;;;5092635;28;20044;-67
2022/07/03 04:07:22;;;;;;;6.57;3.67;;;17.20;99.90;;;;;;5074513;28;20048;-67
2022/07/03 04:09:48;;;;;;;5.90;3.30;;;17.00;99.90;;;;;;5092568;28;20174;-67
2022/07/03 04:12:13;;;;;;;6.73;3.20;;;17.30;99.90;;;;;;5092276;28;20491;-67
2022/07/03 04:14:39;;;;;;;6.90;3.27;;;17.10;99.90;;;;;;5074774;28;20048;-67
2022/07/03 04:17:05;;;;;;;6.20;3.17;;;17.20;99.90;;;;;;5094165;28;20086;-67
2022/07/03 04:19:31;;;;;;;4.97;3.00;;;17.20;99.90;;;;;;5096569;28;20063;-67
2022/07/03 04:21:57;;;;;;;7.70;3.20;;;17.40;99.90;;;;;;5096400;28;20086;-67
2022/07/03 04:24:23;;;;;;;7.73;3.30;;;17.50;99.90;;;;;;5095927;28;20048;-68
2022/07/03 04:26:48;;;;;;;5.10;2.70;;;17.50;99.90;;;;;;5096144;28;20047;-67
2022/07/03 04:29:14;;;;;;;6.90;2.90;;;17.50;99.90;;;;;;5095756;28;20048;-67
2022/07/03 04:31:40;;;;;;;5.47;2.80;;;17.60;99.90;;;;;;5096111;28;20044;-67
2022/07/03 04:34:06;;;;;;;5.10;2.73;;;17.60;99.90;;;;;;5095723;28;20043;-68
2022/07/03 04:36:32;;;;;;;8.53;3.77;;;17.70;99.90;;;;;;5095939;28;20101;-67
2022/07/03 04:38:58;;;;;;;8.13;2.80;;;17.80;99.90;;;;;;5096109;28;20127;-67
2022/07/03 04:41:24;;;;;;;6.67;2.93;;;17.80;99.90;;;;;;5095942;28;20093;-67
2022/07/03 04:43:49;;;;;;;5.97;2.77;;;17.90;99.90;;;;;;5095950;28;20472;-67
2022/07/03 04:46:15;;;;;;;6.83;2.97;;;17.90;99.90;;;;;;5077181;28;20063;-67
2022/07/03 04:48:41;;;;;;;6.07;2.80;;;18.00;99.90;;;;;;5095729;28;20047;-67
2022/07/03 04:51:07;;;;;;;4.93;2.43;;;18.10;99.90;;;;;;5095441;28;20500;-68
2022/07/03 04:53:32;;;;;;;6.23;2.80;;;18.10;99.90;;;;;;5095433;28;20052;-67
2022/07/03 04:55:58;;;;;;;5.67;2.70;;;18.20;99.90;;;;;;5095800;28;20051;-67
2022/07/03 04:58:24;;;;;;;4.73;2.63;;;18.10;99.90;;;;;;5095252;28;20420;-67
2022/07/03 05:00:49;;;;;;;5.83;2.90;;;18.20;99.90;;;;;;5077590;28;20047;-67
2022/07/03 05:03:15;;;;;;;7.17;3.00;;;18.20;99.90;;;;;;5094988;28;20044;-67
2022/07/03 05:05:41;;;;;;;4.37;3.13;;;18.20;99.90;;;;;;5095565;28;20044;-67
2022/07/03 05:08:06;;;;;;;8.93;3.27;;;18.20;99.90;;;;;;5095478;28;20106;-76
2022/07/03 05:10:32;;;;;;;7.33;3.30;;;18.20;99.90;;;;;;5095493;28;20044;-69
2022/07/03 05:12:58;;;;;;;5.10;3.33;;;18.10;99.90;;;;;;5095238;28;20040;-68
2022/07/03 05:15:23;;;;;;;7.47;3.23;;;18.20;99.90;;;;;;5095003;28;20092;-69
2022/07/03 05:17:49;;;;;;;6.90;3.80;;;18.30;99.90;;;;;;5095011;28;20040;-68
2022/07/03 05:20:24;;;;;;;7.70;4.47;;;18.40;99.90;;;;;;5094913;28;20048;-69
2022/07/03 05:22:57;;;;;;;9.80;3.78;;;18.40;99.90;;;;;;5095414;28;20051;-68
2022/07/03 05:25:24;;;;;;;5.97;3.70;;;18.40;99.90;;;;;;5094862;28;20056;-69
2022/07/03 05:27:50;;;;;;;6.67;3.80;;;18.40;99.90;;;;;;5094006;28;20066;-68
2022/07/03 05:30:16;;;;;;;8.63;4.00;;;18.40;99.90;;;;;;5094721;28;20048;-69
2022/07/03 05:32:42;;;;;;;7.27;4.10;;;18.40;99.90;;;;;;5094872;28;20185;-68
2022/07/03 05:35:08;;;;;;;5.53;4.03;;;18.40;99.90;;;;;;5094618;28;20458;-68
2022/07/03 05:37:34;;;;;;;7.90;3.97;;;18.40;99.90;;;;;;5059889;28;20508;-68
2022/07/03 05:40:00;;;;;;;6.93;4.07;;;18.30;99.90;;;;;;5060322;28;20048;-68
2022/07/03 05:42:26;;;;;;;8.03;4.37;;;18.30;99.90;;;;;;5076654;28;20044;-68
2022/07/03 05:44:52;;;;;;;7.43;4.37;;;18.30;99.90;;;;;;5094620;28;20044;-68
2022/07/03 05:47:17;;;;;;;7.47;3.50;;;18.30;99.90;;;;;;5094425;28;20128;-68
2022/07/03 05:49:43;;;;;;;6.87;3.70;;;18.30;99.90;;;;;;5094661;28;20127;-68
2022/07/03 05:52:09;;;;;;;7.07;4.50;;;18.40;99.90;;;;;;5094625;28;20070;-68
2022/07/03 05:54:35;;;;;;;7.37;4.10;;;18.50;99.90;;;;;;5076317;28;20044;-68
2022/07/03 05:57:00;;;;;;;5.50;4.17;;;18.70;99.90;;;;;;5094361;28;20438;-68
2022/07/03 05:59:26;;;;;;;6.83;4.10;;;18.90;99.90;;;;;;5093980;28;20446;-68
2022/07/03 06:01:52;;;;;;;7.73;3.77;;;19.20;99.90;;;;;;5094790;28;20051;-68
2022/07/03 06:04:17;;;;;;;8.60;3.53;;;20.70;99.90;;;;;;5076195;28;20468;-69
2022/07/03 06:06:43;;;;;;;5.73;3.20;;;21.30;99.90;;;;;;5094206;28;20089;-69
2022/07/03 06:09:09;;;;;;;5.97;3.10;;;21.60;99.90;;;;;;5094174;28;20044;-69
2022/07/03 06:11:34;;;;;;;7.57;2.77;;;21.50;99.90;;;;;;5093833;28;20083;-69
2022/07/03 06:14:00;;;;;;;6.33;2.70;;;21.10;99.90;;;;;;5093798;28;20055;-68
2022/07/03 06:16:26;;;;;;;5.00;2.70;;;20.80;99.90;;;;;;5075441;28;20097;-69
2022/07/03 06:18:52;;;;;;;6.40;2.70;;;20.60;99.90;;;;;;5093965;28;20052;-68
2022/07/03 06:21:17;;;;;;;5.77;3.00;;;20.50;99.90;;;;;;5075790;28;20117;-69
2022/07/03 06:23:43;;;;;;;6.97;2.70;;;21.10;99.90;;;;;;5094060;28;20044;-69
2022/07/03 06:26:09;;;;;;;4.50;2.57;;;21.60;99.90;;;;;;5093817;28;20047;-69
2022/07/03 06:28:35;;;;;;;7.60;2.47;;;22.30;99.90;;;;;;5093494;28;20055;-69
2022/07/03 06:31:00;;;;;;;6.43;2.73;;;22.40;99.90;;;;;;5093752;28;20127;-68
2022/07/03 06:33:26;;;;;;;5.37;2.70;;;22.30;99.90;;;;;;5093483;28;20040;-68
2022/07/03 06:35:52;;;;;;;5.43;2.33;;;22.60;99.90;;;;;;5093605;28;20043;-68
2022/07/03 06:38:17;;;;;;;5.63;2.40;;;22.90;99.90;;;;;;5093407;28;20105;-73
2022/07/03 06:40:43;;;;;;;4.40;2.10;;;23.60;99.90;;;;;;5093371;28;20075;-68
2022/07/03 06:43:09;;;;;;;5.90;2.50;;;24.80;99.90;;;;;;5093960;28;20165;-68
2022/07/03 06:45:34;;;;;;;4.20;1.90;;;24.90;96.80;;;;;;5075400;28;20051;-68
2022/07/03 06:48:00;;;;;;;5.13;2.20;;;24.60;95.50;;;;;;5093737;28;20036;-68
2022/07/03 06:50:26;;;;;;;11.27;2.23;;;;;;;;;;5074782;28;20543;-68
2022/07/03 06:52:52;;;;;;;5.40;2.30;;;23.70;99.90;;;;;;5093576;28;20055;-68
2022/07/03 06:55:18;;;;;;;6.20;2.07;;;23.40;96.60;;;;;;5093332;28;20051;-68
2022/07/03 06:57:43;;;;;;;7.57;2.23;;;23.00;97.60;;;;;;5093069;28;20040;-68
2022/07/03 07:00:10;;;;;;;4.13;1.90;;;22.90;98.60;;;;;;5093375;28;20048;-68
2022/07/03 07:02:36;;;;;;;5.40;2.07;;;;;;;;;;5093005;28;20044;-68
2022/07/03 07:05:02;;;;;;;3.97;1.90;;;24.00;97.90;;;;;;5093297;28;20040;-67
2022/07/03 07:07:28;;;;;;;6.43;2.13;;;24.20;95.20;;;;;;5092986;28;20044;-67
2022/07/03 07:09:53;;;;;;;5.10;1.80;;;24.20;96.10;;;;;;5093224;28;20474;-68
2022/07/03 07:12:19;;;;;;;5.57;2.00;;;24.20;95.50;;;;;;5093197;28;20050;-66
2022/07/03 07:14:45;;;;;;;6.53;1.80;;;24.20;94.40;;;;;;5092867;28;20181;-66
2022/07/03 07:17:10;;;;;;;9.27;2.00;;;23.80;92.80;;;;;;5093186;28;20047;-66
2022/07/03 07:19:36;;;;;;;6.83;2.13;;;23.90;94.50;;;;;;5092893;28;20040;-66
2022/07/03 07:22:02;;;;;;;6.47;1.90;;;25.30;92.40;;;;;;5093038;28;20506;-67
2022/07/03 07:24:29;;;;;;;4.50;1.73;;;;;;;;;;5092773;28;20075;-67
2022/07/03 07:26:55;;;;;;;4.47;1.90;;;;;;;;;;5093081;28;20040;-67
2022/07/03 07:29:21;;;;;;;4.87;1.70;;;;;;;;;;5092983;28;20047;-67
2022/07/03 07:31:47;;;;;;;5.27;1.80;;;;;;;;;;5092390;28;20438;-67
2022/07/03 07:34:13;;;;;;;4.97;1.63;;;;;;;;;;5093075;28;20094;-68
2022/07/03 07:36:39;;;;;;;4.78;1.75;;;32.00;50.50;;;;;;5092555;28;20037;-68
2022/07/03 07:39:05;;;;;;;4.45;1.80;;;32.20;51.40;;;;;;5092832;28;20048;-68
2022/07/03 07:41:31;;;;;;;4.45;1.70;;;;;;;;;;5092463;28;20051;-68
2022/07/03 07:43:57;;;;;;;5.13;1.77;;;;;;;;;;5092755;28;20048;-67
2022/07/03 07:46:23;;;;;;;5.40;1.70;;;33.10;44.10;;;;;;5092940;28;20092;-67
2022/07/03 07:48:49;;;;;;;7.05;2.20;;;33.40;45.90;;;;;;5092480;28;20410;-67
2022/07/03 07:51:15;;;;;;;4.07;1.90;;;33.70;53.10;;;;;;5093160;28;20139;-67
2022/07/03 07:53:42;;;;;;;3.67;1.60;;;;;;;;;;5096538;28;20051;-67
2022/07/03 07:56:07;;;;;;;3.83;1.73;;;34.00;40.90;;;;;;5078865;28;20048;-67
2022/07/03 07:58:33;;;;;;;2.33;1.40;;;34.20;71.20;;;;;;5078394;28;20052;-67
2022/07/03 08:06:28;;;;;;;6.20;2.17;;;;;;;;;;5096317;28;20043;-73
2022/07/03 08:08:54;;;;;;;5.57;1.90;;;;;;;;;;5096628;28;20047;-67
2022/07/03 08:11:20;;;;;;;4.63;1.77;;;;;;;;;;5078252;28;20044;-68
2022/07/03 08:13:46;;;;;;;7.82;2.60;;;;;;;;;;5096318;28;20048;-68
2022/07/03 08:16:13;;;;;;;3.67;1.55;;;35.50;36.70;;;;;;5077959;28;20135;-67
2022/07/03 08:18:40;;;;;;;7.07;1.98;;;35.50;38.10;;;;;;5096102;28;20048;-67
2022/07/03 08:21:05;;;;;;;4.95;2.03;;;35.50;38.10;;;;;;5096297;28;20369;-68
2022/07/03 08:23:31;;;;;;;5.65;1.80;;;35.50;38.00;;;;;;5078169;28;20150;-68
2022/07/03 08:25:57;;;;;;;5.75;1.98;;;35.50;38.40;;;;;;5096210;28;20409;-67
2022/07/03 08:28:22;;;;;;;5.78;1.80;;;35.90;56.90;;;;;;5096280;28;20043;-67
2022/07/03 08:30:48;;;;;;;5.07;1.77;;;35.80;58.30;;;;;;5095829;28;20047;-67
2022/07/03 08:33:14;;;;;;;4.78;1.65;;;35.10;37.50;;;;;;5095987;28;20113;-67
2022/07/03 08:35:40;;;;;;;4.50;1.60;;;34.90;38.10;;;;;;5095713;28;20051;-67
2022/07/03 08:38:06;;;;;;;5.40;1.80;;;35.20;37.70;;;;;;5077830;28;20080;-67
2022/07/03 08:40:31;;;;;;;4.32;1.38;;;35.20;36.80;;;;;;5061350;28;20051;-67
2022/07/03 08:43:01;;;;;;;4.63;1.70;;;35.20;36.70;;;;;;5095840;28;20097;-67
2022/07/03 08:45:28;;;;;;;5.78;1.90;;;;;;;;;;5077969;28;20044;-67
2022/07/03 08:47:55;;;;;;;5.95;1.70;;;;;;;;;;5095543;28;20051;-67
2022/07/03 08:50:21;;;;;;;4.75;1.52;;;34.00;67.00;;;;;;5095526;28;20071;-67
2022/07/03 08:52:48;;;;;;;5.18;1.70;;;;;;;;;;5095523;28;20048;-67
2022/07/03 08:55:15;;;;;;;2.70;1.48;;;;;;;;;;5077802;28;20052;-67
2022/07/03 08:57:42;;;;;;;3.78;1.40;;;33.30;67.30;;;;;;5095250;28;20055;-67
2022/07/03 09:00:10;;;;;;;4.50;1.73;;;;;;;;;;5095643;28;20067;-67
2022/07/03 09:02:37;;;;;;;3.65;1.58;;;;;;;;;;5095009;28;20044;-68
2022/07/03 09:05:04;;;;;;;5.30;1.90;;;31.70;51.30;;;;;;5095441;28;20044;-67
2022/07/03 09:07:36;;;;;;;3.83;1.77;;;;;;;;;;5095331;28;20043;-67
2022/07/03 09:10:07;;;;;;;3.38;1.55;;;30.70;40.80;;;;;;5095470;28;20048;-66
2022/07/03 09:12:34;;;;;;;3.85;1.80;;;;;;;;;;5095288;28;20514;-67
2022/07/03 09:15:01;;;;;;;3.88;1.55;;;30.40;41.20;;;;;;5077176;28;20135;-67
2022/07/03 09:17:30;;;;;;;3.70;1.70;;;30.00;41.60;;;;;;5095113;28;20044;-66
2022/07/03 09:19:58;;;;;;;5.03;1.40;;;29.40;41.50;;;;;;5094919;28;20102;-67
2022/07/03 09:22:26;;;;;;;4.45;1.67;;;29.00;42.20;;;;;;5103235;28;20052;-69
2022/07/03 09:24:54;;;;;;;8.75;2.05;;;28.70;43.10;;;;;;5104062;28;20170;-68
2022/07/03 09:27:22;;;;;;;6.18;1.50;;;28.30;44.10;;;;;;5104318;28;20036;-68
2022/07/03 09:29:59;;;;;;;5.15;1.67;;;28.10;45.00;;;;;;5105582;28;20473;-67
2022/07/03 09:32:25;;;;;;;4.72;1.40;;;27.80;45.80;;;;;;5105846;28;20078;-67
2022/07/03 09:35:20;;;;;;;5.72;1.65;;;27.80;45.70;;;;;;5103652;28;20047;-67
2022/07/03 09:38:09;;;;;;;6.25;1.58;;;27.80;46.80;;;;;;5105302;28;20512;-67
2022/07/03 09:40:56;;;;;;;3.83;1.20;;;27.70;45.30;;;;;;5094330;28;20457;-66
2022/07/03 09:43:28;;;;;;;5.35;1.60;;;27.50;46.70;;;;;;5095003;28;20048;-66
2022/07/03 09:46:02;;;;;;;5.95;2.20;;;27.40;46.50;;;;;;5094434;28;20090;-66
2022/07/03 09:48:31;;;;;;;4.57;1.70;;;;;;;;;;5094568;28;20058;-66
2022/07/03 09:51:14;;;;;;;5.00;1.60;;;27.10;47.70;;;;;;5094259;28;20059;-66
2022/07/03 09:54:00;;;;;;;5.38;1.95;;;27.30;49.70;;;;;;5094635;28;20385;-66
2022/07/03 09:56:34;;;;;;;7.18;1.63;;;27.20;49.50;;;;;;5076494;28;20050;-67
2022/07/03 09:59:13;;;;;;;7.88;2.53;;;27.00;50.30;;;;;;5094226;28;20048;-67
2022/07/03 10:01:43;;;;;;;5.53;1.83;;;26.80;50.70;;;;;;5094492;28;20094;-67
2022/07/03 10:04:10;;;;;;;5.50;1.83;;;26.80;51.00;;;;;;5094513;28;20051;-67
2022/07/03 10:06:50;;;;;;;6.63;1.90;;;26.80;51.00;;;;;;5094073;28;20487;-67
2022/07/03 10:09:18;;;;;;;7.10;2.03;;;26.70;51.30;;;;;;5094446;28;20097;-66
2022/07/03 10:11:44;;;;;;;5.22;1.65;;;26.60;52.00;;;;;;5093920;28;20044;-70
2022/07/03 10:14:16;;;;;;;8.93;2.03;;;26.50;52.70;;;;;;5075507;28;20048;-66
2022/07/03 10:16:43;;;;;;;7.87;1.90;;;26.30;54.00;;;;;;5094070;28;20370;-67
2022/07/03 10:19:14;;;;;;;8.30;2.27;;;26.30;54.20;;;;;;5094073;28;20052;-67
2022/07/03 10:21:42;;;;;;;5.27;2.00;;;26.20;54.50;;;;;;5076374;28;20125;-67
2022/07/03 10:24:10;;;;;;;5.53;1.73;;;26.10;54.70;;;;;;5093650;28;20392;-67
2022/07/03 10:26:36;;;;;;;7.27;2.13;;;26.00;55.30;;;;;;5093833;28;20040;-67
2022/07/03 10:29:02;;;;;;;7.83;2.33;;;26.00;56.30;;;;;;5093588;28;20044;-67
2022/07/03 10:31:38;;;;;;;7.03;2.40;;;25.90;57.80;;;;;;5093855;28;20466;-67
2022/07/03 10:34:05;;;;;;;4.97;1.47;;;25.80;58.10;;;;;;5093625;28;20048;-67
2022/07/03 10:36:33;;;;;;;5.93;1.70;;;25.60;58.40;;;;;;5093602;28;20047;-66
2022/07/03 10:39:04;;;;;;;7.20;1.77;;;25.60;59.90;;;;;;5093401;28;20097;-66
2022/07/03 10:47:39;;;;;;;5.82;1.70;;;25.60;58.80;;;;;;5093399;28;20052;-67
2022/07/03 10:50:11;;;;;;;7.50;1.73;;;25.60;59.70;;;;;;5092876;28;20047;-67
2022/07/03 10:52:37;;;;;;;12.77;2.80;;;25.50;59.60;;;;;;5092875;28;20388;-67
2022/07/03 10:55:06;;;;;;;6.80;1.90;;;25.40;60.30;;;;;;5092428;28;20051;-67
2022/07/03 10:57:32;;;;;;;7.93;2.27;;;25.40;60.90;;;;;;5092595;28;20043;-67
2022/07/03 11:00:00;;;;;;;7.53;1.80;;;25.30;61.60;;;;;;5092272;28;20039;-67
2022/07/03 11:02:47;;;;;;;11.73;2.77;;;25.30;62.30;;;;;;5092736;28;20204;-67
2022/07/03 11:05:20;;;;;;;7.37;1.73;;;25.30;64.10;;;;;;5092249;28;20040;-68
2022/07/03 11:07:54;;;;;;;8.30;2.13;;;25.30;65.20;;;;;;5092514;28;20052;-67
2022/07/03 11:10:20;;;;;;;10.75;2.40;;;25.20;65.50;;;;;;5092430;28;20131;-70
2022/07/03 11:13:17;;;;;;;7.37;1.87;;;25.00;67.00;;;;;;5100625;28;20174;-68
2022/07/03 11:15:51;;;;;;;7.50;1.90;;;24.90;71.60;;;;;;5085141;28;20169;-69
2022/07/03 11:18:27;;;;;;;8.82;2.63;;;25.00;71.30;;;;;;5102110;28;20039;-69
2022/07/03 11:20:52;;;;;;;7.30;2.00;;;25.00;72.70;;;;;;5101141;28;20443;-69
2022/07/03 11:23:27;;;;;;;7.17;2.27;;;25.00;71.90;;;;;;5101704;28;20100;-68
2022/07/03 11:25:55;;;;;;;;;;;25.00;71.20;;;;;;5100423;28;20119;-69
2022/07/03 11:28:33;;;;;;;5.07;1.73;;;24.90;70.80;;;;;;5103399;28;19920;-71
2022/07/03 11:31:11;;;;;;;6.53;1.87;;;24.80;70.70;;;;;;5107710;28;20122;-69
2022/07/03 11:33:43;;;;;;;5.50;1.80;;;24.80;69.00;;;;;;5112576;28;20055;-69
2022/07/03 11:36:32;;;;;;;3.97;1.47;;;24.90;69.10;;;;;;5112041;28;20054;-67
2022/07/03 11:38:58;;;;;;;6.40;1.43;;;25.00;67.70;;;;;;5094178;28;20471;-68
2022/07/03 11:41:29;;;;;;;5.90;1.40;;;25.10;67.00;;;;;;5112309;28;20048;-68
2022/07/03 11:44:04;;;;;;;5.23;1.80;;;25.00;66.70;;;;;;5112264;28;20055;-72
2022/07/03 11:46:32;;;;;;;4.07;1.33;;;25.00;66.70;;;;;;5112536;28;20042;-67
2022/07/03 11:49:18;;;;;;;4.80;1.70;;;24.90;64.50;;;;;;5094114;28;20073;-67
2022/07/03 11:51:56;;;;;;;4.17;1.40;;;24.90;64.40;;;;;;5074054;28;1091137;-67
2022/07/03 11:54:21;;;;;;;4.53;1.50;;;24.80;64.90;;;;;;5113055;28;20497;-67
2022/07/03 11:56:47;;;;;;;6.20;1.70;;;24.80;64.70;;;;;;5112992;28;20036;-67
2022/07/03 11:59:13;;;;;;;4.13;1.27;;;24.80;65.50;;;;;;5112456;28;20142;-68
2022/07/03 12:01:39;;;;;;;4.77;1.50;;;24.80;66.20;;;;;;5113163;28;20039;-67
2022/07/03 12:04:14;;;;;;;3.23;1.33;;;24.70;65.00;;;;;;5112830;28;20054;-67
2022/07/03 12:06:39;;;;;;;;;;;24.70;65.30;;;;;;5095393;28;20130;-67
2022/07/03 12:09:12;;;;;;;4.93;1.40;;;24.70;64.90;;;;;;5112475;28;20011;-68
2022/07/03 12:11:41;;;;;;;6.20;1.40;;;24.80;64.70;;;;;;5094736;28;20047;-68
2022/07/03 12:14:06;;;;;;;5.50;1.57;;;24.90;65.40;;;;;;5112496;28;20048;-68
2022/07/03 12:16:33;;;;;;;5.47;1.93;;;25.00;66.00;;;;;;5112638;28;20048;-68
2022/07/03 12:19:05;;;;;;;5.00;1.40;;;24.90;65.80;;;;;;5112508;28;20480;-72
2022/07/03 12:21:39;;;;;;;4.50;1.50;;;24.90;67.00;;;;;;5113019;28;20096;-68
2022/07/03 12:24:14;;;;;;;5.03;1.80;;;25.00;66.30;;;;;;5112517;28;20052;-68
2022/07/03 12:26:40;;;;;;;4.93;2.07;;;24.90;65.70;;;;;;5113087;28;20031;-68
2022/07/03 12:29:12;;;;;;;6.90;1.43;;;25.00;67.00;;;;;;5112422;28;20476;-67
2022/07/03 12:31:46;;;;;;;6.43;1.47;;;24.90;67.70;;;;;;5112900;28;20054;-67
2022/07/03 12:34:13;;;;;;;3.65;1.20;;;24.80;67.80;;;;;;5112659;28;20126;-68
2022/07/03 12:36:40;;;;;;;3.40;1.20;;;24.60;67.90;;;;;;5094430;28;20482;-67
2022/07/03 12:39:06;;;;;;;5.67;1.53;;;24.60;67.70;;;;;;5115846;28;20054;-68
2022/07/03 12:41:32;;;;;;;8.10;1.47;;;24.60;67.00;;;;;;5116519;28;20039;-68
2022/07/03 12:43:59;;;;;;;2.97;1.60;;;24.50;67.00;;;;;;5098240;28;20168;-68
2022/07/03 12:46:32;;;;;;;8.47;1.57;;;24.40;66.60;;;;;;5115953;28;20085;-68
2022/07/03 12:49:11;;;;;;;5.23;1.73;;;24.30;66.20;;;;;;5116128;28;20048;-68
2022/07/03 12:51:48;;;;;;;9.27;1.43;;;24.50;67.50;;;;;;5116330;28;20044;-67
2022/07/03 12:54:33;;;;;;;4.13;1.10;;;24.60;68.20;;;;;;5115857;28;20063;-70
2022/07/03 12:59:16;;;;;;;4.63;1.52;;;24.60;68.90;;;;;;5098031;28;20085;-66
2022/07/03 13:00:20;;;;;;;3.43;1.40;;;24.70;68.30;;;;;;5115907;28;20052;-67
2022/07/03 13:02:48;;;;;;;4.63;1.63;;;24.60;68.80;;;;;;5116032;28;20044;-67
2022/07/03 13:05:18;;;;;;;6.13;1.73;;;24.60;70.40;;;;;;5097359;28;20047;-68
2022/07/03 13:07:46;;;;;;;3.00;1.40;;;24.60;72.90;;;;;;5115813;28;20035;-70
2022/07/03 13:10:15;;;;;;;5.83;2.40;;;24.40;83.80;;;;;;5115354;28;20196;-71
2022/07/03 13:12:51;;;;;;;4.10;1.40;;;24.20;91.00;;;;;;5115659;28;20176;-71
2022/07/03 13:15:21;;;;;;;3.07;1.40;;;24.00;93.70;;;;;;5115436;28;20052;-72
2022/07/03 13:18:04;;;;;;;3.93;1.50;;;23.70;93.80;;;;;;5115502;28;20046;-72
2022/07/03 13:20:32;;;;;;;6.07;1.63;;;23.50;94.50;;;;;;5115333;28;20043;-71